Pontardulais, United Kingdom
Current Conditions -  °F | °C
As of 4:50 PM on Friday 21 Nov 2014 (Local Time) from EGOP Reporting Station
Broken Clouds Broken Clouds  
Wind Chill: 50°   Ceiling: 1500
Heat Index: 50°   Visibility: 2mi
Dew Point: 50°   Wind: 20mph
Humidity: 100%   Direction: 120°ESE
Pressure: 29.8"   Gusts: 31mph
Location:  51.71°N, 4.04°W
Report Text: EGOP 211650Z AUTO 12017G27KT 3300 // BKN015/// SCT033/// 10/10 Q1009
Loading
Personal Weather Stations






























Interactive Weather Map New forecast layout! Learn more

10-Day Weather Forecast

Advertisements
Track Severe Weather on mobile